createdAt,value
2018-11-26T00:00:16.771Z,4.90
2018-11-26T00:02:45.464Z,4.80
2018-11-26T00:05:14.201Z,4.80
2018-11-26T00:07:57.796Z,4.80
2018-11-26T00:10:38.008Z,4.70
2018-11-26T00:13:06.707Z,4.70
2018-11-26T00:15:35.414Z,4.70
2018-11-26T00:18:04.109Z,4.80
2018-11-26T00:20:32.811Z,4.70
2018-11-26T00:23:01.514Z,4.70
2018-11-26T00:25:30.244Z,4.70
2018-11-26T00:27:58.961Z,4.70
2018-11-26T00:30:27.681Z,4.80
2018-11-26T00:32:56.412Z,4.70
2018-11-26T00:35:25.403Z,4.70
2018-11-26T00:37:54.121Z,4.80
2018-11-26T00:40:22.831Z,4.80
2018-11-26T00:42:52.101Z,4.70
2018-11-26T00:45:20.821Z,4.80
2018-11-26T00:47:49.532Z,4.80
2018-11-26T00:50:18.256Z,4.70
2018-11-26T00:52:46.943Z,4.70
2018-11-26T00:55:15.641Z,4.70
2018-11-26T00:57:44.349Z,4.60
2018-11-26T01:00:13.088Z,4.60
2018-11-26T01:02:41.779Z,4.60
2018-11-26T01:05:18.736Z,4.70
2018-11-26T01:07:47.434Z,4.70
2018-11-26T01:10:16.140Z,4.70
2018-11-26T01:12:44.841Z,4.60
2018-11-26T01:15:13.651Z,4.60
2018-11-26T01:17:42.380Z,4.70
2018-11-26T01:20:11.090Z,4.60
2018-11-26T01:22:39.789Z,4.70
2018-11-26T01:25:08.489Z,4.60
2018-11-26T01:27:37.182Z,4.60
2018-11-26T01:30:07.476Z,4.70
2018-11-26T01:32:36.187Z,4.60
2018-11-26T01:35:05.341Z,4.60
2018-11-26T01:37:34.047Z,4.60
2018-11-26T01:40:02.758Z,4.60
2018-11-26T01:42:31.465Z,4.60
2018-11-26T01:45:00.180Z,4.60
2018-11-26T01:47:28.869Z,4.60
2018-11-26T01:49:57.553Z,4.60
2018-11-26T01:52:32.721Z,4.60
2018-11-26T01:55:01.403Z,4.60
2018-11-26T01:57:30.281Z,4.60
2018-11-26T01:59:58.997Z,4.50
2018-11-26T02:02:27.663Z,4.50
2018-11-26T02:04:56.372Z,4.50
2018-11-26T02:07:25.055Z,4.50
2018-11-26T02:09:53.744Z,4.50
2018-11-26T02:12:22.429Z,4.50
2018-11-26T02:14:51.099Z,4.50
2018-11-26T02:17:19.772Z,4.50
2018-11-26T02:19:48.461Z,4.50
2018-11-26T02:22:17.148Z,4.40
2018-11-26T02:24:45.889Z,4.40
2018-11-26T02:27:14.683Z,4.50
2018-11-26T02:29:43.368Z,4.50
2018-11-26T02:32:12.052Z,4.40
2018-11-26T02:34:40.733Z,4.40
2018-11-26T02:37:09.420Z,4.30
2018-11-26T02:39:38.112Z,4.30
2018-11-26T02:42:06.781Z,4.30
2018-11-26T02:44:35.469Z,4.30
2018-11-26T02:47:04.156Z,4.40
2018-11-26T02:49:32.845Z,4.40
2018-11-26T02:52:01.540Z,4.50
2018-11-26T02:54:30.212Z,4.50
2018-11-26T02:56:58.893Z,4.40
2018-11-26T02:59:27.575Z,4.50
2018-11-26T03:01:56.269Z,4.40
2018-11-26T03:04:24.943Z,4.40
2018-11-26T03:06:53.623Z,4.40
2018-11-26T03:09:22.425Z,4.40
2018-11-26T03:11:51.093Z,4.40
2018-11-26T03:14:19.771Z,4.30
2018-11-26T03:16:48.476Z,4.40
2018-11-26T03:19:17.142Z,4.40
2018-11-26T03:21:45.833Z,4.40
2018-11-26T03:24:14.525Z,4.30
2018-11-26T03:26:43.220Z,4.30
2018-11-26T03:29:11.865Z,4.40
2018-11-26T03:31:40.547Z,4.30
2018-11-26T03:34:09.220Z,4.30
2018-11-26T03:36:37.920Z,4.30
2018-11-26T03:39:07.301Z,4.20
2018-11-26T03:41:35.992Z,4.30
2018-11-26T03:44:04.731Z,4.20
2018-11-26T03:46:33.480Z,4.10
2018-11-26T03:49:02.167Z,4.10
2018-11-26T03:51:30.848Z,4.20
2018-11-26T03:53:59.516Z,4.00
2018-11-26T03:56:28.185Z,4.10
2018-11-26T03:58:57.413Z,4.00
2018-11-26T04:01:26.091Z,4.00
2018-11-26T04:03:54.768Z,4.00
2018-11-26T04:06:23.445Z,4.00
2018-11-26T04:08:52.383Z,4.00
2018-11-26T04:11:21.048Z,4.00
2018-11-26T04:13:49.717Z,3.90
2018-11-26T04:16:18.403Z,3.90
2018-11-26T04:18:47.064Z,3.90
2018-11-26T04:21:15.817Z,3.90
2018-11-26T04:23:44.504Z,3.90
2018-11-26T04:26:13.199Z,3.90
2018-11-26T04:28:41.865Z,3.90
2018-11-26T04:31:10.536Z,3.90
2018-11-26T04:33:39.185Z,3.90
2018-11-26T04:36:07.857Z,3.80
2018-11-26T04:38:36.525Z,3.80
2018-11-26T04:41:06.032Z,3.80
2018-11-26T04:43:35.016Z,3.80
2018-11-26T04:46:03.669Z,3.70
2018-11-26T04:48:32.359Z,3.70
2018-11-26T04:51:01.023Z,3.80
2018-11-26T04:53:29.698Z,3.70
2018-11-26T04:55:58.376Z,3.60
2018-11-26T04:58:27.194Z,3.70
2018-11-26T05:00:55.918Z,3.70
2018-11-26T05:03:24.569Z,3.70
2018-11-26T05:05:53.256Z,3.70
2018-11-26T05:08:21.938Z,3.70
2018-11-26T05:10:51.219Z,3.70
2018-11-26T05:13:19.290Z,3.70
2018-11-26T05:15:47.995Z,3.70
2018-11-26T05:18:16.644Z,3.70
2018-11-26T05:20:45.330Z,3.70
2018-11-26T05:23:14.008Z,3.60
2018-11-26T05:25:42.684Z,3.60
2018-11-26T05:28:11.396Z,3.50
2018-11-26T05:30:40.077Z,3.50
2018-11-26T05:33:08.767Z,3.40
2018-11-26T05:35:37.420Z,3.40
2018-11-26T05:38:06.121Z,3.40
2018-11-26T05:40:34.865Z,3.40
2018-11-26T05:43:03.617Z,3.40
2018-11-26T05:45:32.281Z,3.30
2018-11-26T05:48:00.979Z,3.30
2018-11-26T05:50:29.658Z,3.20
2018-11-26T05:52:58.341Z,3.20
2018-11-26T05:55:27.003Z,3.20
2018-11-26T05:57:55.669Z,3.20
2018-11-26T06:00:29.972Z,3.20
2018-11-26T06:02:58.673Z,3.20
2018-11-26T06:05:27.359Z,3.20
2018-11-26T06:07:56.079Z,3.10
2018-11-26T06:10:24.736Z,3.10
2018-11-26T06:12:53.420Z,3.00
2018-11-26T06:15:22.097Z,3.10
2018-11-26T06:17:50.778Z,3.00
2018-11-26T06:20:19.756Z,3.00
2018-11-26T06:22:48.113Z,3.00
2018-11-26T06:25:19.094Z,2.90
2018-11-26T06:27:47.796Z,2.90
2018-11-26T06:30:17.578Z,2.90
2018-11-26T06:32:46.262Z,2.90
2018-11-26T06:35:17.113Z,2.90
2018-11-26T06:37:45.801Z,2.90
2018-11-26T06:40:14.604Z,2.90
2018-11-26T06:42:43.304Z,2.80
2018-11-26T06:45:16.038Z,2.80
2018-11-26T06:47:44.747Z,2.80
2018-11-26T06:50:14.493Z,2.80
2018-11-26T06:52:43.331Z,2.80
2018-11-26T06:55:15.105Z,2.80
2018-11-26T06:57:43.833Z,2.80
2018-11-26T07:00:14.400Z,2.80
2018-11-26T07:02:43.096Z,2.80
2018-11-26T07:05:14.647Z,2.80
2018-11-26T07:07:43.400Z,2.80
2018-11-26T07:10:12.638Z,2.80
2018-11-26T07:12:41.354Z,2.80
2018-11-26T07:15:15.147Z,2.70
2018-11-26T07:17:43.902Z,2.80
2018-11-26T07:20:13.614Z,2.70
2018-11-26T07:22:42.298Z,2.70
2018-11-26T07:25:11.896Z,2.70
2018-11-26T07:27:40.712Z,2.80
2018-11-26T07:30:11.221Z,2.70
2018-11-26T07:32:40.517Z,2.60
2018-11-26T07:35:09.603Z,2.60
2018-11-26T07:37:38.281Z,2.60
2018-11-26T07:40:14.861Z,2.60
2018-11-26T07:42:49.220Z,2.60
2018-11-26T07:45:17.898Z,2.60
2018-11-26T07:47:46.584Z,2.60
2018-11-26T07:50:16.197Z,2.60
2018-11-26T07:52:44.864Z,2.60
2018-11-26T07:55:15.609Z,2.60
2018-11-26T07:57:44.411Z,2.60
2018-11-26T08:00:14.937Z,2.60
2018-11-26T08:02:43.906Z,2.50
2018-11-26T08:05:13.528Z,2.60
2018-11-26T08:07:42.295Z,2.60
2018-11-26T08:10:18.794Z,2.50
2018-11-26T08:12:48.402Z,2.50
2018-11-26T08:15:19.116Z,2.30
2018-11-26T08:17:47.793Z,2.20
2018-11-26T08:20:16.485Z,2.00
2018-11-26T08:22:45.159Z,1.90
2018-11-26T08:25:15.805Z,1.70
2018-11-26T08:27:45.387Z,1.70
2018-11-26T08:30:16.629Z,1.60
2018-11-26T08:32:46.481Z,1.50
2018-11-26T08:35:16.059Z,1.40
2018-11-26T08:37:50.020Z,1.40
2018-11-26T08:40:24.376Z,1.50
2018-11-26T08:42:58.270Z,1.40
2018-11-26T08:45:32.767Z,1.40
2018-11-26T08:48:06.901Z,1.30
2018-11-26T08:50:35.568Z,1.20
2018-11-26T08:53:04.252Z,1.10
2018-11-26T08:55:32.941Z,1.10
2018-11-26T08:58:01.627Z,1.30
2018-11-26T09:00:30.880Z,1.40
2018-11-26T09:04:06.917Z,1.30
2018-11-26T09:06:35.604Z,1.20
2018-11-26T09:09:07.604Z,1.20
2018-11-26T09:11:36.411Z,1.10
2018-11-26T09:14:06.002Z,1.10
2018-11-26T09:16:35.186Z,1.10
2018-11-26T09:19:03.891Z,1.10
2018-11-26T09:21:32.572Z,1.10
2018-11-26T09:24:01.271Z,1.10
2018-11-26T09:26:29.950Z,1.10
2018-11-26T09:28:58.623Z,1.00
2018-11-26T09:31:27.304Z,1.00
2018-11-26T09:33:55.980Z,1.00
2018-11-26T09:36:24.647Z,1.00
2018-11-26T09:38:53.320Z,1.00
2018-11-26T09:41:21.981Z,1.00
2018-11-26T09:43:50.651Z,1.10
2018-11-26T09:46:19.320Z,1.20
2018-11-26T09:48:48.028Z,1.20
2018-11-26T09:51:16.765Z,1.20
2018-11-26T09:53:45.454Z,1.10
2018-11-26T09:56:14.137Z,1.10
2018-11-26T09:58:42.828Z,1.10
2018-11-26T10:01:11.518Z,1.10
2018-11-26T10:03:40.197Z,1.20
2018-11-26T10:06:08.864Z,1.20
2018-11-26T10:08:37.556Z,1.30
2018-11-26T10:11:06.231Z,1.40
2018-11-26T10:13:34.920Z,1.50
2018-11-26T10:16:03.604Z,1.60
2018-11-26T10:18:32.276Z,1.60
2018-11-26T10:21:00.944Z,1.70
2018-11-26T10:23:29.615Z,1.70
2018-11-26T10:25:58.312Z,1.80
2018-11-26T10:28:26.948Z,1.90
2018-11-26T10:30:55.619Z,2.00
2018-11-26T10:33:24.301Z,2.00
2018-11-26T10:35:52.971Z,2.10
2018-11-26T10:38:21.704Z,2.20
2018-11-26T10:40:50.318Z,2.30
2018-11-26T10:43:19.016Z,2.40
2018-11-26T10:45:47.690Z,2.40
2018-11-26T10:48:16.546Z,2.50
2018-11-26T10:50:45.184Z,2.60
2018-11-26T10:53:13.844Z,2.60
2018-11-26T10:55:42.483Z,2.60
2018-11-26T10:58:11.148Z,2.60
2018-11-26T11:01:45.049Z,2.60
2018-11-26T11:04:13.718Z,2.60
2018-11-26T11:06:42.376Z,2.60
2018-11-26T11:09:11.046Z,2.70
2018-11-26T11:11:39.701Z,2.80
2018-11-26T11:14:08.364Z,2.80
2018-11-26T11:16:37.019Z,2.80
2018-11-26T11:19:05.680Z,2.90
2018-11-26T11:21:34.335Z,2.90
2018-11-26T11:24:02.993Z,2.90
2018-11-26T11:26:31.641Z,2.90
2018-11-26T11:29:00.290Z,2.90
2018-11-26T11:31:28.954Z,2.90
2018-11-26T11:33:57.649Z,3.00
2018-11-26T11:36:26.309Z,3.00
2018-11-26T11:38:54.983Z,2.90
2018-11-26T11:41:23.624Z,2.90
2018-11-26T11:43:52.284Z,2.90
2018-11-26T11:46:20.937Z,2.90
2018-11-26T11:48:49.725Z,2.90
2018-11-26T11:51:19.111Z,2.90
2018-11-26T11:53:47.076Z,2.90
2018-11-26T11:56:15.750Z,2.90
2018-11-26T11:58:44.418Z,3.00
2018-11-26T12:01:13.101Z,3.00
2018-11-26T12:03:41.768Z,3.00
2018-11-26T12:06:11.387Z,3.00
2018-11-26T12:08:39.126Z,3.00
2018-11-26T12:11:08.055Z,3.00
2018-11-26T12:13:36.747Z,2.90
2018-11-26T12:16:06.666Z,2.90
2018-11-26T12:18:35.473Z,2.80
2018-11-26T12:21:04.273Z,2.80
2018-11-26T12:23:32.966Z,2.90
2018-11-26T12:26:01.617Z,2.90
2018-11-26T12:28:30.314Z,3.00
2018-11-26T12:30:58.969Z,3.00
2018-11-26T12:33:27.642Z,2.90
2018-11-26T12:35:56.313Z,2.90
2018-11-26T12:38:24.988Z,2.80
2018-11-26T12:40:53.677Z,2.80
2018-11-26T12:43:22.374Z,2.80
2018-11-26T12:45:51.053Z,2.80
2018-11-26T12:48:19.729Z,2.80
2018-11-26T12:50:48.398Z,2.80
2018-11-26T12:53:17.073Z,2.90
2018-11-26T12:55:45.749Z,3.00
2018-11-26T12:58:14.419Z,3.00
2018-11-26T13:00:43.229Z,2.90
2018-11-26T13:03:13.017Z,2.80
2018-11-26T13:05:41.693Z,2.80
2018-11-26T13:08:10.577Z,2.80
2018-11-26T13:10:39.483Z,2.80
2018-11-26T13:13:09.528Z,2.80
2018-11-26T13:15:38.362Z,2.90
2018-11-26T13:18:07.307Z,2.90
2018-11-26T13:20:36.214Z,2.90
2018-11-26T13:23:06.386Z,2.90
2018-11-26T13:25:41.510Z,2.80
2018-11-26T13:28:05.989Z,2.80
2018-11-26T13:30:39.219Z,2.80
2018-11-26T13:33:09.657Z,2.80
2018-11-26T13:35:39.915Z,2.80
2018-11-26T13:38:09.237Z,2.70
2018-11-26T13:40:37.933Z,2.70
2018-11-26T13:43:08.749Z,2.70
2018-11-26T13:45:40.019Z,2.60
2018-11-26T13:48:10.171Z,2.60
2018-11-26T13:50:40.486Z,2.50
2018-11-26T13:53:09.339Z,2.50
2018-11-26T13:55:38.019Z,2.50
2018-11-26T13:58:06.698Z,2.50
2018-11-26T14:00:35.385Z,2.50
2018-11-26T14:03:04.394Z,2.50
2018-11-26T14:05:33.177Z,2.50
2018-11-26T14:08:01.852Z,2.50
2018-11-26T14:10:30.534Z,2.50
2018-11-26T14:13:03.013Z,2.60
2018-11-26T14:15:31.690Z,2.60
2018-11-26T14:18:00.447Z,2.60
2018-11-26T14:20:29.110Z,2.60
2018-11-26T14:22:57.866Z,2.50
2018-11-26T14:25:26.893Z,2.50
2018-11-26T14:27:55.692Z,2.50
2018-11-26T14:30:25.950Z,2.50
2018-11-26T14:32:55.034Z,2.50
2018-11-26T14:35:23.773Z,2.50
2018-11-26T14:37:54.900Z,2.60
2018-11-26T14:40:26.040Z,2.50
2018-11-26T14:42:54.741Z,2.60
2018-11-26T14:45:23.446Z,2.60
2018-11-26T14:47:52.123Z,2.60
2018-11-26T14:50:20.824Z,2.60
2018-11-26T14:52:50.155Z,2.60
2018-11-26T14:55:23.775Z,2.60
2018-11-26T14:57:52.452Z,2.60
2018-11-26T15:00:21.437Z,2.60
2018-11-26T15:02:50.369Z,2.60
2018-11-26T15:05:19.019Z,2.60
2018-11-26T15:07:47.780Z,2.70
2018-11-26T15:10:19.151Z,2.60
2018-11-26T15:12:47.909Z,2.60
2018-11-26T15:15:21.195Z,2.60
2018-11-26T15:17:49.868Z,2.70
2018-11-26T15:20:23.706Z,2.70
2018-11-26T15:22:53.355Z,2.70
2018-11-26T15:25:23.193Z,2.80
2018-11-26T15:27:52.966Z,2.80
2018-11-26T15:30:22.269Z,2.80
2018-11-26T15:32:50.945Z,2.80
2018-11-26T15:35:21.009Z,2.80
2018-11-26T15:37:49.716Z,2.80
2018-11-26T15:40:19.470Z,2.90
2018-11-26T15:42:48.401Z,2.90
2018-11-26T15:45:25.102Z,3.00
2018-11-26T15:47:54.534Z,3.00
2018-11-26T15:50:23.195Z,3.00
2018-11-26T15:52:51.880Z,3.00
2018-11-26T15:55:21.274Z,3.10
2018-11-26T15:57:50.165Z,3.10
2018-11-26T16:00:19.906Z,3.10
2018-11-26T16:02:48.626Z,3.10
2018-11-26T16:05:18.614Z,3.10
2018-11-26T16:07:47.808Z,3.10
2018-11-26T16:10:16.466Z,3.20
2018-11-26T16:12:46.294Z,3.10
2018-11-26T16:15:18.254Z,3.20
2018-11-26T16:17:46.995Z,3.10
2018-11-26T16:20:17.943Z,3.10
2018-11-26T16:22:46.647Z,3.10
2018-11-26T16:25:16.780Z,3.10
2018-11-26T16:27:45.443Z,3.00
2018-11-26T16:30:15.081Z,3.00
2018-11-26T16:32:46.125Z,2.90
2018-11-26T16:35:17.053Z,2.80
2018-11-26T16:37:45.707Z,2.80
2018-11-26T16:40:15.441Z,2.80
2018-11-26T16:42:44.149Z,2.80
2018-11-26T16:45:14.254Z,2.70
2018-11-26T16:47:43.477Z,2.70
2018-11-26T16:50:13.258Z,2.70
2018-11-26T16:52:41.937Z,2.70
2018-11-26T16:55:11.862Z,2.80
2018-11-26T16:57:40.762Z,2.80
2018-11-26T17:00:17.018Z,2.80
2018-11-26T17:02:46.527Z,2.70
2018-11-26T17:05:16.844Z,2.70
2018-11-26T17:07:45.505Z,2.70
2018-11-26T17:10:14.157Z,2.80
2018-11-26T17:12:42.840Z,2.70
2018-11-26T17:15:16.478Z,2.70
2018-11-26T17:17:45.373Z,2.70
2018-11-26T17:20:14.998Z,2.70
2018-11-26T17:22:43.765Z,2.70
2018-11-26T17:25:14.693Z,2.70
2018-11-26T17:27:43.917Z,2.70
2018-11-26T17:30:15.797Z,2.70
2018-11-26T17:32:45.086Z,2.60
2018-11-26T17:35:14.698Z,2.70
2018-11-26T17:37:43.430Z,2.70
2018-11-26T17:40:16.561Z,2.70
2018-11-26T17:42:45.236Z,2.70
2018-11-26T17:45:14.619Z,2.70
2018-11-26T17:47:44.801Z,2.70
2018-11-26T17:50:16.938Z,2.70
2018-11-26T17:52:45.601Z,2.70
2018-11-26T17:55:14.281Z,2.70
2018-11-26T17:57:42.962Z,2.70
2018-11-26T18:00:16.064Z,2.70
2018-11-26T18:02:45.377Z,2.70
2018-11-26T18:05:16.414Z,2.60
2018-11-26T18:07:46.241Z,2.60
2018-11-26T18:10:15.435Z,2.60
2018-11-26T18:12:44.115Z,2.60
2018-11-26T18:15:13.735Z,2.60
2018-11-26T18:17:43.338Z,2.60
2018-11-26T18:20:14.468Z,2.60
2018-11-26T18:22:44.180Z,2.60
2018-11-26T18:25:12.990Z,2.60
2018-11-26T18:27:47.698Z,2.70
2018-11-26T18:30:18.115Z,2.60
2018-11-26T18:32:46.793Z,2.60
2018-11-26T18:35:15.472Z,2.60
2018-11-26T18:37:44.134Z,2.60
2018-11-26T18:40:14.282Z,2.60
2018-11-26T18:42:42.969Z,2.70
2018-11-26T18:45:16.825Z,2.70
2018-11-26T18:47:46.284Z,2.70
2018-11-26T18:50:16.077Z,2.70
2018-11-26T18:52:45.289Z,2.70
2018-11-26T18:55:13.953Z,2.70
2018-11-26T18:57:42.776Z,2.70
2018-11-26T19:00:18.719Z,2.70
2018-11-26T19:02:47.427Z,2.70
2018-11-26T19:05:16.895Z,2.70
2018-11-26T19:07:45.572Z,2.70
2018-11-26T19:10:30.562Z,2.80
2018-11-26T19:13:05.598Z,2.80
2018-11-26T19:15:36.127Z,2.80
2018-11-26T19:18:11.365Z,2.70
2018-11-26T19:20:40.043Z,2.70
2018-11-26T19:23:08.729Z,2.70
2018-11-26T19:25:37.376Z,2.70
2018-11-26T19:28:06.037Z,2.70
2018-11-26T19:30:34.711Z,2.70
2018-11-26T19:33:03.377Z,2.70
2018-11-26T19:35:32.042Z,2.80
2018-11-26T19:38:00.711Z,2.70
2018-11-26T19:40:29.369Z,2.70
2018-11-26T19:42:58.089Z,2.70
2018-11-26T19:45:26.737Z,2.70
2018-11-26T19:47:55.483Z,2.70
2018-11-26T19:50:24.133Z,2.70
2018-11-26T19:52:53.633Z,2.70
2018-11-26T19:55:25.170Z,2.70
2018-11-26T19:57:55.198Z,2.70
2018-11-26T20:00:26.130Z,2.60
2018-11-26T20:02:58.613Z,2.60
2018-11-26T20:05:38.681Z,2.60
2018-11-26T20:08:08.206Z,2.60
2018-11-26T20:10:36.882Z,2.50
2018-11-26T20:13:05.812Z,2.40
2018-11-26T20:15:34.490Z,2.40
2018-11-26T20:18:03.191Z,2.30
2018-11-26T20:20:31.860Z,2.20
2018-11-26T20:23:00.543Z,2.20
2018-11-26T20:25:29.251Z,2.10
2018-11-26T20:27:58.158Z,2.10
2018-11-26T20:30:26.820Z,2.10
2018-11-26T20:32:55.518Z,2.00
2018-11-26T20:35:24.249Z,2.00
2018-11-26T20:37:52.931Z,2.00
2018-11-26T20:40:21.604Z,2.00
2018-11-26T20:42:51.917Z,2.00
2018-11-26T20:45:20.642Z,2.00
2018-11-26T20:47:50.296Z,2.00
2018-11-26T20:50:22.175Z,2.00
2018-11-26T20:52:50.829Z,2.00
2018-11-26T20:55:20.861Z,2.00
2018-11-26T20:57:50.358Z,2.00
2018-11-26T21:00:20.213Z,2.00
2018-11-26T21:02:51.011Z,2.00
2018-11-26T21:05:19.799Z,2.00
2018-11-26T21:07:48.450Z,1.90
2018-11-26T21:10:17.341Z,1.90
2018-11-26T21:12:46.016Z,1.90
2018-11-26T21:15:15.955Z,1.90
2018-11-26T21:17:48.706Z,1.90
2018-11-26T21:20:19.147Z,1.90
2018-11-26T21:22:47.809Z,1.90
2018-11-26T21:25:16.961Z,1.90
2018-11-26T21:27:45.638Z,1.90
2018-11-26T21:30:18.228Z,1.90
2018-11-26T21:32:46.909Z,1.80
2018-11-26T21:35:16.719Z,1.80
2018-11-26T21:37:46.733Z,1.90
2018-11-26T21:40:20.283Z,1.90
2018-11-26T21:42:45.045Z,1.90
2018-11-26T21:45:19.347Z,1.90
2018-11-26T21:47:48.024Z,1.90
2018-11-26T21:50:16.716Z,1.90
2018-11-26T21:52:45.410Z,1.80
2018-11-26T21:55:15.507Z,1.80
2018-11-26T21:57:43.895Z,1.90
2018-11-26T22:00:16.675Z,1.90
2018-11-26T22:02:45.486Z,1.80
2018-11-26T22:05:14.191Z,1.80
2018-11-26T22:07:42.870Z,1.80
2018-11-26T22:10:12.746Z,1.80
2018-11-26T22:12:41.826Z,1.80
2018-11-26T22:15:11.865Z,1.80
2018-11-26T22:17:40.597Z,1.80
2018-11-26T22:20:10.874Z,1.80
2018-11-26T22:22:39.552Z,1.80
2018-11-26T22:25:09.675Z,1.80
2018-11-26T22:27:38.353Z,1.70
2018-11-26T22:30:14.408Z,1.80
2018-11-26T22:32:43.068Z,1.70
2018-11-26T22:35:11.976Z,1.80
2018-11-26T22:37:40.643Z,1.80
2018-11-26T22:40:11.711Z,1.80
2018-11-26T22:42:40.501Z,1.80
2018-11-26T22:45:15.653Z,1.90
2018-11-26T22:47:45.974Z,1.80
2018-11-26T22:50:15.257Z,1.80
2018-11-26T22:52:44.007Z,1.80
2018-11-26T22:55:13.558Z,1.80
2018-11-26T22:57:42.955Z,1.80
2018-11-26T23:00:12.975Z,1.80
2018-11-26T23:02:41.936Z,1.90
2018-11-26T23:05:10.590Z,1.80
2018-11-26T23:07:39.242Z,1.80
2018-11-26T23:10:09.167Z,1.80
2018-11-26T23:12:37.852Z,1.80
2018-11-26T23:15:09.588Z,1.80
2018-11-26T23:17:38.235Z,1.80
2018-11-26T23:20:09.110Z,1.80
2018-11-26T23:22:37.793Z,1.80
2018-11-26T23:25:09.716Z,1.90
2018-11-26T23:27:38.341Z,1.90
2018-11-26T23:30:19.773Z,1.90
2018-11-26T23:32:49.748Z,1.90
2018-11-26T23:35:18.433Z,1.90
2018-11-26T23:37:47.082Z,1.90
2018-11-26T23:40:15.748Z,1.90
2018-11-26T23:42:44.406Z,1.90
2018-11-26T23:45:14.098Z,1.90
2018-11-26T23:47:42.769Z,1.90
2018-11-26T23:50:12.277Z,1.90
2018-11-26T23:52:41.238Z,1.80
2018-11-26T23:55:12.913Z,1.80
2018-11-26T23:57:41.645Z,1.80
